createdAt,value
2018-07-19T00:01:34.064Z,4.37
2018-07-19T00:04:01.205Z,5.43
2018-07-19T00:06:28.367Z,5.40
2018-07-19T00:08:55.496Z,3.97
2018-07-19T00:11:22.649Z,4.67
2018-07-19T00:13:49.863Z,4.03
2018-07-19T00:16:17.212Z,4.10
2018-07-19T00:18:44.329Z,4.10
2018-07-19T00:21:11.481Z,4.60
2018-07-19T00:23:38.605Z,4.00
2018-07-19T00:26:05.756Z,3.90
2018-07-19T00:28:32.964Z,4.60
2018-07-19T00:31:00.084Z,4.20
2018-07-19T00:33:27.204Z,4.63
2018-07-19T00:35:54.341Z,5.60
2018-07-19T00:38:21.519Z,4.83
2018-07-19T00:40:48.664Z,4.77
2018-07-19T00:43:15.789Z,4.90
2018-07-19T00:45:42.911Z,4.90
2018-07-19T00:48:10.048Z,5.10
2018-07-19T00:50:37.168Z,4.20
2018-07-19T00:53:04.359Z,4.87
2018-07-19T00:55:31.484Z,4.57
2018-07-19T00:57:58.616Z,5.03
2018-07-19T01:00:25.777Z,5.07
2018-07-19T01:02:52.972Z,4.67
2018-07-19T01:05:20.120Z,4.40
2018-07-19T01:07:47.240Z,4.33
2018-07-19T01:10:14.400Z,4.53
2018-07-19T01:12:41.536Z,4.93
2018-07-19T01:15:08.660Z,4.80
2018-07-19T01:17:35.817Z,4.77
2018-07-19T01:20:03.109Z,5.07
2018-07-19T01:22:30.242Z,4.60
2018-07-19T01:24:57.388Z,4.77
2018-07-19T01:27:24.512Z,5.10
2018-07-19T01:29:51.631Z,4.70
2018-07-19T01:32:18.761Z,4.60
2018-07-19T01:34:45.893Z,4.47
2018-07-19T01:37:13.020Z,3.80
2018-07-19T01:39:40.184Z,5.77
2018-07-19T01:42:20.256Z,4.80
2018-07-19T01:44:47.405Z,4.80
2018-07-19T01:47:14.531Z,5.40
2018-07-19T01:49:43.496Z,12.37
2018-07-19T01:52:11.083Z,6.50
2018-07-19T01:54:38.239Z,5.47
2018-07-19T01:57:06.175Z,4.97
2018-07-19T01:59:33.372Z,53.23
2018-07-19T02:02:00.524Z,5.20
2018-07-19T02:04:27.677Z,4.83
2018-07-19T02:06:54.811Z,5.13
2018-07-19T02:09:22.355Z,5.10
2018-07-19T02:11:49.508Z,5.93
2018-07-19T02:14:16.660Z,5.90
2018-07-19T02:16:44.108Z,5.97
2018-07-19T02:19:11.981Z,5.17
2018-07-19T02:21:39.436Z,6.17
2018-07-19T02:24:06.688Z,5.80
2018-07-19T02:26:33.829Z,8.10
2018-07-19T02:29:00.980Z,6.47
2018-07-19T02:31:28.092Z,6.23
2018-07-19T02:33:55.505Z,6.40
2018-07-19T02:36:22.711Z,6.03
2018-07-19T02:38:49.851Z,14.03
2018-07-19T02:41:16.992Z,17.50
2018-07-19T02:43:44.164Z,10.17
2018-07-19T02:46:11.268Z,29.47
2018-07-19T02:48:38.439Z,21.90
2018-07-19T02:51:05.604Z,14.30
2018-07-19T02:53:32.712Z,9.90
2018-07-19T02:55:59.844Z,10.10
2018-07-19T02:58:26.967Z,10.20
2018-07-19T03:00:54.096Z,7.67
2018-07-19T03:03:21.232Z,11.30
2018-07-19T03:05:48.760Z,10.23
2018-07-19T03:08:15.908Z,8.50
2018-07-19T03:10:43.267Z,14.93
2018-07-19T03:13:10.392Z,169.73
2018-07-19T03:15:37.541Z,13.13
2018-07-19T03:18:05.030Z,14.27
2018-07-19T03:20:32.148Z,30.53
2018-07-19T03:22:59.281Z,43.63
2018-07-19T03:25:26.404Z,19.57
2018-07-19T03:27:53.527Z,16.27
2018-07-19T03:30:20.648Z,23.03
2018-07-19T03:32:47.771Z,130.60
2018-07-19T03:35:14.896Z,31.03
2018-07-19T03:37:42.005Z,40.27
2018-07-19T03:40:09.168Z,30.33
2018-07-19T03:42:36.285Z,30.97
2018-07-19T03:45:03.478Z,46.47
2018-07-19T03:47:30.601Z,69.67
2018-07-19T03:49:58.095Z,31.97
2018-07-19T03:52:25.230Z,129.03
2018-07-19T03:54:52.363Z,46.40
2018-07-19T03:57:19.500Z,88.07
2018-07-19T03:59:46.629Z,58.93
2018-07-19T04:02:13.750Z,301.97
2018-07-19T04:04:40.912Z,89.67
2018-07-19T04:07:08.040Z,71.13
2018-07-19T04:09:35.154Z,88.27
2018-07-19T04:12:02.292Z,194.67
2018-07-19T04:14:29.419Z,284.57
2018-07-19T04:16:56.537Z,142.93
2018-07-19T04:19:23.676Z,167.37
2018-07-19T04:21:50.816Z,293.23
2018-07-19T04:24:17.944Z,363.37
2018-07-19T04:26:45.080Z,387.40
2018-07-19T04:29:12.209Z,241.17
2018-07-19T04:31:39.366Z,174.10
2018-07-19T04:34:06.807Z,369.67
2018-07-19T04:36:33.957Z,233.57
2018-07-19T04:39:01.108Z,333.27
2018-07-19T04:41:28.256Z,173.90
2018-07-19T04:43:55.440Z,211.37
2018-07-19T04:46:22.589Z,244.00
2018-07-19T04:48:49.716Z,347.40
2018-07-19T04:51:16.840Z,111.63
2018-07-19T04:53:44.027Z,163.50
2018-07-19T04:56:11.195Z,257.30
2018-07-19T04:58:38.319Z,207.37
2018-07-19T05:01:05.776Z,155.53
2018-07-19T05:03:32.917Z,281.17
2018-07-19T05:06:00.088Z,208.57
2018-07-19T05:08:27.207Z,236.23
2018-07-19T05:10:54.332Z,237.60
2018-07-19T05:13:21.496Z,377.80
2018-07-19T05:15:48.636Z,198.03
2018-07-19T05:18:15.756Z,245.97
2018-07-19T05:20:42.917Z,289.53
2018-07-19T05:23:10.124Z,327.43
2018-07-19T05:25:37.208Z,144.17
2018-07-19T05:28:04.336Z,164.23
2018-07-19T05:30:31.460Z,169.47
2018-07-19T05:32:58.597Z,133.90
2018-07-19T05:35:25.708Z,296.40
2018-07-19T05:37:52.832Z,223.57
2018-07-19T05:40:19.988Z,260.70
2018-07-19T05:42:47.153Z,138.33
2018-07-19T05:45:14.276Z,167.83
2018-07-19T05:47:41.412Z,258.33
2018-07-19T05:50:08.612Z,103.20
2018-07-19T05:52:35.736Z,125.27
2018-07-19T05:55:03.307Z,120.13
2018-07-19T05:57:30.456Z,274.07
2018-07-19T05:59:57.636Z,200.97
2018-07-19T06:02:24.788Z,217.77
2018-07-19T06:04:51.924Z,226.90
2018-07-19T06:07:19.072Z,341.37
2018-07-19T06:09:46.220Z,193.20
2018-07-19T06:12:13.376Z,239.97
2018-07-19T06:14:40.693Z,288.40
2018-07-19T06:17:07.828Z,255.07
2018-07-19T06:19:34.973Z,405.97
2018-07-19T06:22:02.109Z,455.77
2018-07-19T06:24:29.243Z,250.90
2018-07-19T06:26:56.385Z,98.40
2018-07-19T06:29:24.006Z,211.67
2018-07-19T06:31:51.161Z,70.53
2018-07-19T06:34:18.309Z,159.17
2018-07-19T06:36:45.440Z,158.97
2018-07-19T06:39:12.559Z,313.17
2018-07-19T06:41:39.685Z,398.13
2018-07-19T06:44:06.864Z,176.17
2018-07-19T06:46:33.992Z,105.83
2018-07-19T06:49:01.150Z,89.43
2018-07-19T06:51:28.299Z,210.33
2018-07-19T06:53:55.521Z,40.00
2018-07-19T06:56:22.652Z,48.83
2018-07-19T06:58:49.792Z,55.70
2018-07-19T07:01:17.351Z,108.83
2018-07-19T07:03:44.535Z,377.03
2018-07-19T07:06:11.620Z,315.57
2018-07-19T07:08:38.749Z,82.57
2018-07-19T07:11:05.884Z,77.93
2018-07-19T07:13:33.019Z,242.07
2018-07-19T07:16:00.164Z,378.90
2018-07-19T07:18:27.328Z,140.87
2018-07-19T07:20:54.479Z,377.70
2018-07-19T07:23:21.620Z,24.10
2018-07-19T07:25:51.029Z,339.20
2018-07-19T07:28:19.813Z,122.33
2018-07-19T07:30:46.903Z,175.37
2018-07-19T07:33:14.428Z,149.23
2018-07-19T07:35:41.568Z,127.03
2018-07-19T07:38:08.710Z,105.80
2018-07-19T07:40:36.185Z,56.27
2018-07-19T07:43:03.330Z,300.97
2018-07-19T07:45:30.487Z,142.20
2018-07-19T07:47:57.613Z,424.10
2018-07-19T07:50:24.764Z,366.37
2018-07-19T07:52:51.987Z,311.47
2018-07-19T07:55:19.297Z,40.93
2018-07-19T07:57:46.444Z,46.47
2018-07-19T08:00:13.581Z,62.77
2018-07-19T08:02:40.713Z,132.03
2018-07-19T08:05:07.884Z,242.97
2018-07-19T08:07:35.403Z,47.00
2018-07-19T08:10:02.574Z,128.33
2018-07-19T08:12:29.757Z,130.03
2018-07-19T08:14:56.889Z,77.90
2018-07-19T08:17:24.053Z,26.10
2018-07-19T08:19:51.179Z,22.63
2018-07-19T08:22:18.324Z,86.47
2018-07-19T08:24:45.471Z,61.30
2018-07-19T08:27:12.616Z,34.87
2018-07-19T08:29:39.755Z,23.33
2018-07-19T08:32:06.932Z,35.90
2018-07-19T08:34:34.085Z,107.53
2018-07-19T08:37:01.238Z,23.07
2018-07-19T08:39:28.357Z,39.77
2018-07-19T08:41:55.589Z,71.00
2018-07-19T08:44:22.648Z,129.73
2018-07-19T08:46:49.804Z,15.43
2018-07-19T08:49:16.959Z,44.30
2018-07-19T08:51:44.168Z,13.13
2018-07-19T08:54:11.253Z,9.50
2018-07-19T08:56:38.420Z,39.50
2018-07-19T08:59:05.564Z,41.17
2018-07-19T09:01:32.709Z,37.47
2018-07-19T09:03:59.840Z,28.57
2018-07-19T09:06:26.961Z,84.93
2018-07-19T09:08:54.124Z,7.37
2018-07-19T09:11:21.313Z,7.40
2018-07-19T09:13:48.444Z,15.83
2018-07-19T09:16:15.572Z,11.40
2018-07-19T09:18:42.785Z,85.30
2018-07-19T09:21:09.933Z,52.67
2018-07-19T09:23:37.081Z,11.93
2018-07-19T09:26:04.245Z,7.30
2018-07-19T09:28:31.369Z,86.10
2018-07-19T09:30:58.524Z,106.47
2018-07-19T09:33:25.673Z,137.43
2018-07-19T09:35:52.852Z,6.77
2018-07-19T09:38:20.712Z,23.63
2018-07-19T09:40:47.822Z,10.67
2018-07-19T09:43:14.961Z,20.17
2018-07-19T09:45:42.095Z,97.90
2018-07-19T09:48:09.240Z,50.40
2018-07-19T09:50:36.377Z,58.50
2018-07-19T09:53:03.540Z,116.00
2018-07-19T09:55:30.696Z,18.17
2018-07-19T09:57:57.844Z,16.73
2018-07-19T10:00:30.588Z,52.63
2018-07-19T10:02:57.753Z,111.53
2018-07-19T10:05:24.904Z,142.13
2018-07-19T10:07:52.025Z,69.20
2018-07-19T10:10:19.200Z,138.57
2018-07-19T10:12:46.289Z,786.63
2018-07-19T10:15:13.486Z,108.40
2018-07-19T10:17:40.624Z,84.93
2018-07-19T10:20:07.807Z,48.23
2018-07-19T10:22:34.964Z,67.50
2018-07-19T10:25:02.109Z,62.43
2018-07-19T10:27:29.260Z,51.17
2018-07-19T10:29:56.380Z,115.97
2018-07-19T10:32:23.706Z,101.27
2018-07-19T10:34:50.681Z,71.07
2018-07-19T10:37:17.809Z,133.63
2018-07-19T10:39:44.944Z,35.90
2018-07-19T10:42:12.064Z,58.37
2018-07-19T10:44:39.186Z,71.53
2018-07-19T10:47:06.361Z,250.20
2018-07-19T10:49:33.488Z,409.10
2018-07-19T10:52:00.664Z,155.20
2018-07-19T10:54:27.757Z,370.77
2018-07-19T10:56:54.876Z,310.43
2018-07-19T10:59:22.008Z,253.47
2018-07-19T11:01:49.168Z,477.33
2018-07-19T11:04:16.299Z,514.33
2018-07-19T11:06:43.438Z,595.67
2018-07-19T11:09:10.572Z,634.33
2018-07-19T11:11:37.743Z,700.13
2018-07-19T11:14:04.888Z,522.57
2018-07-19T11:16:32.053Z,660.00
2018-07-19T11:18:59.148Z,963.67
2018-07-19T11:21:26.296Z,385.47
2018-07-19T11:23:53.432Z,813.10
2018-07-19T11:26:20.541Z,389.37
2018-07-19T11:28:47.683Z,476.83
2018-07-19T11:31:14.805Z,613.27
2018-07-19T11:33:41.915Z,584.03
2018-07-19T11:36:09.041Z,824.40
2018-07-19T11:38:36.184Z,876.83
2018-07-19T11:41:03.359Z,855.93
2018-07-19T11:43:30.464Z,675.63
2018-07-19T11:45:57.634Z,999.90
2018-07-19T11:48:24.765Z,970.00
2018-07-19T11:50:51.943Z,947.67
2018-07-19T11:53:19.093Z,847.20
2018-07-19T11:55:46.248Z,774.40
2018-07-19T11:58:13.388Z,922.80
2018-07-19T12:00:40.520Z,923.73
2018-07-19T12:03:07.642Z,999.90
2018-07-19T12:05:34.781Z,999.90
2018-07-19T12:08:01.893Z,999.90
2018-07-19T12:10:29.005Z,999.90
2018-07-19T12:12:56.196Z,999.90
2018-07-19T12:15:23.348Z,999.90
2018-07-19T12:17:51.336Z,999.90
2018-07-19T12:20:18.460Z,999.90
2018-07-19T12:22:45.570Z,999.90
2018-07-19T12:25:12.790Z,999.90
2018-07-19T12:27:39.925Z,954.93
2018-07-19T12:30:07.065Z,999.90
2018-07-19T12:32:34.197Z,999.90
2018-07-19T12:35:01.325Z,999.90
2018-07-19T12:37:28.452Z,999.90
2018-07-19T12:39:55.572Z,999.90
2018-07-19T12:42:22.703Z,999.90
2018-07-19T12:44:49.816Z,999.90
2018-07-19T12:47:16.946Z,999.90
2018-07-19T12:49:44.074Z,999.90
2018-07-19T12:52:11.261Z,999.90
2018-07-19T12:54:38.333Z,999.90
2018-07-19T12:57:05.500Z,999.90
2018-07-19T12:59:32.648Z,999.90
2018-07-19T13:01:59.821Z,999.90
2018-07-19T13:04:26.968Z,999.90
2018-07-19T13:06:54.097Z,999.90
2018-07-19T13:09:21.228Z,999.90
2018-07-19T13:11:48.381Z,999.90
2018-07-19T13:14:15.502Z,999.90
2018-07-19T13:16:42.616Z,999.90
2018-07-19T13:19:09.787Z,999.90
2018-07-19T13:21:36.937Z,999.90
2018-07-19T13:24:04.104Z,999.90
2018-07-19T13:26:31.221Z,999.90
2018-07-19T13:28:58.352Z,999.90
2018-07-19T13:31:25.483Z,999.90
2018-07-19T13:33:52.624Z,999.90
2018-07-19T13:36:19.774Z,999.90
2018-07-19T13:38:46.880Z,999.90
2018-07-19T13:41:14.132Z,999.90
2018-07-19T13:43:41.453Z,999.90
2018-07-19T13:46:08.576Z,999.90
2018-07-19T13:48:35.714Z,999.90
2018-07-19T13:51:02.865Z,999.90
2018-07-19T13:53:41.564Z,999.90
2018-07-19T13:56:09.209Z,999.90
2018-07-19T13:58:37.066Z,999.90
2018-07-19T14:01:04.331Z,999.90
2018-07-19T14:03:31.760Z,999.43
2018-07-19T14:05:59.220Z,999.90
2018-07-19T14:08:26.349Z,999.90
2018-07-19T14:10:53.944Z,999.90
2018-07-19T14:13:21.064Z,991.17
2018-07-19T14:15:48.232Z,999.90
2018-07-19T14:18:15.704Z,6.90
2018-07-19T14:20:42.829Z,484.53
2018-07-19T14:23:09.985Z,999.90
2018-07-19T14:25:37.127Z,984.70
2018-07-19T14:28:04.264Z,999.90
2018-07-19T14:30:31.448Z,999.90
2018-07-19T14:32:58.595Z,999.90
2018-07-19T14:35:25.754Z,999.90
2018-07-19T14:37:53.516Z,999.90
2018-07-19T14:40:20.725Z,999.90
2018-07-19T14:42:47.956Z,999.90
2018-07-19T14:45:15.088Z,999.90
2018-07-19T14:47:42.196Z,939.33
2018-07-19T14:50:09.346Z,999.90
2018-07-19T14:52:36.461Z,999.90
2018-07-19T14:55:03.981Z,999.90
2018-07-19T14:57:31.100Z,999.90
2018-07-19T14:59:58.241Z,999.90
2018-07-19T15:02:25.380Z,999.90
2018-07-19T15:04:52.557Z,999.90
2018-07-19T15:07:19.736Z,992.77
2018-07-19T15:09:46.832Z,999.90
2018-07-19T15:12:13.964Z,999.90
2018-07-19T15:14:41.089Z,999.90
2018-07-19T15:17:08.274Z,999.90
2018-07-19T15:19:35.403Z,999.90
2018-07-19T15:22:02.584Z,999.90
2018-07-19T15:24:29.707Z,999.90
2018-07-19T15:26:56.824Z,999.80
2018-07-19T15:29:23.959Z,999.90
2018-07-19T15:31:51.069Z,999.90
2018-07-19T15:34:18.289Z,999.90
2018-07-19T15:36:45.361Z,999.90
2018-07-19T15:39:12.484Z,999.90
2018-07-19T15:41:39.596Z,999.90
2018-07-19T15:44:06.721Z,999.90
2018-07-19T15:46:33.872Z,999.90
2018-07-19T15:49:01.004Z,999.90
2018-07-19T15:51:28.128Z,999.90
2018-07-19T15:53:55.260Z,999.90
2018-07-19T15:56:22.400Z,999.90
2018-07-19T15:58:49.564Z,999.90
2018-07-19T16:01:16.676Z,960.43
2018-07-19T16:03:43.816Z,52.90
2018-07-19T16:06:10.972Z,886.43
2018-07-19T16:08:38.085Z,999.90
2018-07-19T16:11:05.376Z,959.60
2018-07-19T16:13:32.493Z,999.90
2018-07-19T16:15:59.613Z,999.90
2018-07-19T16:18:26.740Z,999.90
2018-07-19T16:20:53.884Z,999.90
2018-07-19T16:23:21.020Z,999.90
2018-07-19T16:25:48.164Z,999.90
2018-07-19T16:28:15.280Z,999.90
2018-07-19T16:30:42.392Z,999.37
2018-07-19T16:33:09.533Z,927.40
2018-07-19T16:35:36.662Z,909.47
2018-07-19T16:38:03.812Z,999.90
2018-07-19T16:40:30.945Z,999.90
2018-07-19T16:42:58.077Z,999.90
2018-07-19T16:45:25.207Z,997.40
2018-07-19T16:47:52.624Z,999.90
2018-07-19T16:50:19.765Z,999.90
2018-07-19T16:52:46.912Z,988.47
2018-07-19T16:55:14.040Z,999.90
2018-07-19T16:57:41.169Z,999.90
2018-07-19T17:00:08.316Z,999.90
2018-07-19T17:02:35.431Z,999.90
2018-07-19T17:05:02.596Z,999.90
2018-07-19T17:07:29.740Z,999.90
2018-07-19T17:09:56.906Z,999.90
2018-07-19T17:12:24.033Z,999.90
2018-07-19T17:14:51.185Z,999.90
2018-07-19T17:17:18.359Z,999.90
2018-07-19T17:19:45.464Z,999.90
2018-07-19T17:22:12.588Z,999.90
2018-07-19T17:24:39.713Z,999.90
2018-07-19T17:27:06.819Z,999.90
2018-07-19T17:29:33.971Z,999.90
2018-07-19T17:32:01.092Z,999.90
2018-07-19T17:34:28.296Z,999.90
2018-07-19T17:36:55.433Z,999.90
2018-07-19T17:39:22.568Z,999.90
2018-07-19T17:41:49.692Z,999.90
2018-07-19T17:44:16.815Z,999.90
2018-07-19T17:46:43.940Z,999.90
2018-07-19T17:49:11.068Z,971.20
2018-07-19T17:51:38.228Z,999.90
2018-07-19T17:54:05.372Z,999.90
2018-07-19T17:56:32.522Z,999.90
2018-07-19T17:58:59.784Z,938.67
2018-07-19T18:01:26.927Z,998.20
2018-07-19T18:03:54.040Z,999.90
2018-07-19T18:06:21.220Z,946.70
2018-07-19T18:08:48.320Z,999.90
2018-07-19T18:11:15.447Z,999.90
2018-07-19T18:13:42.588Z,999.90
2018-07-19T18:16:09.720Z,997.20
2018-07-19T18:18:36.883Z,974.97
2018-07-19T18:21:03.986Z,908.37
2018-07-19T18:23:31.142Z,807.67
2018-07-19T18:25:58.300Z,883.83
2018-07-19T18:28:25.421Z,776.67
2018-07-19T18:30:52.652Z,897.40
2018-07-19T18:33:19.792Z,637.63
2018-07-19T18:35:46.913Z,766.17
2018-07-19T18:38:14.044Z,849.27
2018-07-19T18:40:41.239Z,731.50
2018-07-19T18:43:08.400Z,621.77
2018-07-19T18:45:35.507Z,723.20
2018-07-19T18:48:02.689Z,587.70
2018-07-19T18:50:29.784Z,608.73
2018-07-19T18:52:56.984Z,642.20
2018-07-19T18:55:24.105Z,760.90
2018-07-19T18:57:51.258Z,784.00
2018-07-19T19:00:18.404Z,502.57
2018-07-19T19:02:45.537Z,698.73
2018-07-19T19:05:12.702Z,663.57
2018-07-19T19:07:39.852Z,615.27
2018-07-19T19:10:06.999Z,777.17
2018-07-19T19:12:34.132Z,697.83
2018-07-19T19:15:01.261Z,632.33
2018-07-19T19:17:28.397Z,708.30
2018-07-19T19:19:55.568Z,723.70
2018-07-19T19:22:22.700Z,892.20
2018-07-19T19:24:49.876Z,607.50
2018-07-19T19:27:17.009Z,781.00
2018-07-19T19:29:44.189Z,795.17
2018-07-19T19:32:11.360Z,939.83
2018-07-19T19:34:38.472Z,825.53
2018-07-19T19:37:05.684Z,717.17
2018-07-19T19:39:32.757Z,775.60
2018-07-19T19:41:59.907Z,708.63
2018-07-19T19:44:27.071Z,860.93
2018-07-19T19:46:54.233Z,800.43
2018-07-19T19:49:21.352Z,893.03
2018-07-19T19:51:48.477Z,999.90
2018-07-19T19:54:15.629Z,999.90
2018-07-19T19:56:42.768Z,989.77
2018-07-19T19:59:09.896Z,997.43
2018-07-19T20:01:37.033Z,839.93
2018-07-19T20:04:04.163Z,946.13
2018-07-19T20:06:31.332Z,889.37
2018-07-19T20:08:58.465Z,881.53
2018-07-19T20:11:25.634Z,961.83
2018-07-19T20:13:52.776Z,963.20
2018-07-19T20:16:19.909Z,991.40
2018-07-19T20:18:47.028Z,928.13
2018-07-19T20:21:14.172Z,922.77
2018-07-19T20:23:41.360Z,999.90
2018-07-19T20:26:08.484Z,978.30
2018-07-19T20:28:35.617Z,990.13
2018-07-19T20:31:02.741Z,999.90
2018-07-19T20:33:29.892Z,999.90
2018-07-19T20:35:57.012Z,999.90
2018-07-19T20:38:24.159Z,999.90
2018-07-19T20:40:51.292Z,999.90
2018-07-19T20:43:18.413Z,999.90
2018-07-19T20:45:45.536Z,968.40
2018-07-19T20:48:12.670Z,979.40
2018-07-19T20:50:39.849Z,999.90
2018-07-19T20:53:06.960Z,999.90
2018-07-19T20:55:34.126Z,999.90
2018-07-19T20:58:01.246Z,999.90
2018-07-19T21:00:28.380Z,999.90
2018-07-19T21:02:55.483Z,999.07
2018-07-19T21:05:22.621Z,999.90
2018-07-19T21:07:49.776Z,999.90
2018-07-19T21:10:16.889Z,999.90
2018-07-19T21:12:44.049Z,999.90
2018-07-19T21:15:11.172Z,999.90
2018-07-19T21:17:38.305Z,999.90
2018-07-19T21:20:05.468Z,999.90
2018-07-19T21:22:32.596Z,999.90
2018-07-19T21:24:59.715Z,995.07
2018-07-19T21:27:26.899Z,999.90
2018-07-19T21:29:54.024Z,999.90
2018-07-19T21:32:21.200Z,999.90
2018-07-19T21:34:48.323Z,999.90
2018-07-19T21:37:15.443Z,999.90
2018-07-19T21:39:42.583Z,999.90
2018-07-19T21:42:09.692Z,999.90
2018-07-19T21:44:36.832Z,999.90
2018-07-19T21:47:04.025Z,999.90
2018-07-19T21:49:31.152Z,999.90
2018-07-19T21:51:58.263Z,889.57
2018-07-19T21:54:25.387Z,999.90
2018-07-19T21:56:52.509Z,938.83
2018-07-19T21:59:19.621Z,984.27
2018-07-19T22:01:46.749Z,858.67
2018-07-19T22:04:15.304Z,597.63
2018-07-19T22:06:43.008Z,549.63
2018-07-19T22:09:11.496Z,624.23
2018-07-19T22:11:38.709Z,519.03
2018-07-19T22:14:06.608Z,473.67
2018-07-19T22:16:33.965Z,206.73
2018-07-19T22:19:01.336Z,290.13
2018-07-19T22:21:28.460Z,77.13
2018-07-19T22:23:55.593Z,69.63
2018-07-19T22:26:22.734Z,67.77
2018-07-19T22:28:49.880Z,63.77
2018-07-19T22:31:17.388Z,29.17
2018-07-19T22:33:44.512Z,33.57
2018-07-19T22:36:11.627Z,36.13
2018-07-19T22:38:38.743Z,28.20
2018-07-19T22:41:06.518Z,54.17
2018-07-19T22:43:33.672Z,19.33
2018-07-19T22:46:00.788Z,20.87
2018-07-19T22:48:27.900Z,22.93
2018-07-19T22:50:55.027Z,31.43
2018-07-19T22:53:22.145Z,22.13
2018-07-19T22:55:49.272Z,17.70
2018-07-19T22:58:16.410Z,11.43
2018-07-19T23:00:43.535Z,17.97
2018-07-19T23:03:10.644Z,13.03
2018-07-19T23:05:37.756Z,10.53
2018-07-19T23:08:04.896Z,15.20
2018-07-19T23:10:32.026Z,12.30
2018-07-19T23:12:59.144Z,9.17
2018-07-19T23:15:26.268Z,7.50
2018-07-19T23:17:53.387Z,8.27
2018-07-19T23:20:20.539Z,8.67
2018-07-19T23:22:53.379Z,6.30
2018-07-19T23:25:20.504Z,5.47
2018-07-19T23:27:47.649Z,5.93
2018-07-19T23:30:16.615Z,6.00
2018-07-19T23:32:43.824Z,5.20
2018-07-19T23:35:10.920Z,5.80
2018-07-19T23:37:39.583Z,7.47
2018-07-19T23:40:10.753Z,5.57
2018-07-19T23:42:40.648Z,8.17
2018-07-19T23:45:18.981Z,6.37
2018-07-19T23:47:46.417Z,6.80
2018-07-19T23:50:13.544Z,6.90
2018-07-19T23:52:40.664Z,8.50
2018-07-19T23:55:07.787Z,7.00
2018-07-19T23:57:34.914Z,6.03
